Chantal — A8WQ3 — position and weather

sailwx.info

Track history (hours):
 
Tides and Currents Weather Stations Pressure Air Temp Water Temp Dewpoint Dewpoint Depression Visibility Wind Speed Wind Dir Waves Ship Positions

Chantal

Last reported at 2014-Aug-29 05:31 UTC. Time now 2014-Sep-03 04:51 UTC.
Position N 38°28' W 008°47'.

Length 228 m; draft 4.9 m.

Type: Tanker. MMSI: 636014805.

Date/timePositionNaut miles runAvg speedWind from/ knotsBaromVisibWave heightAir tempDewpointWater temp
2014-Aug-29 05:31N 38°28' W 008°47'1 1.0
2014-Aug-29 04:33N 38°28' W 008°48'0 0.2
2014-Aug-29 03:28N 38°28' W 008°48'0 0.0
2014-Aug-29 02:28N 38°28' W 008°48'0 0.0
2014-Aug-29 00:04N 38°28' W 008°48'0 0.0
2014-Aug-28 23:13N 38°28' W 008°48'0 0.0
2014-Aug-28 22:28N 38°28' W 008°48'0 0.0
2014-Aug-28 21:22N 38°28' W 008°48'0 0.0
2014-Aug-28 17:19N 38°28' W 008°48'0 0.0
2014-Aug-28 16:33N 38°28' W 008°48'3 2.4
2014-Aug-28 15:30N 38°29' W 008°52'6 6.3
2014-Aug-28 14:33N 38°27' W 008°59'5 4.7
2014-Aug-28 13:33N 38°23' W 009°03'2 1.6
2014-Aug-28 12:33N 38°22' W 009°04'1 1.2
2014-Aug-28 11:29N 38°21' W 009°05'6 6.6
2014-Aug-28 10:33N 38°15' W 009°02'3 1.3
2014-Aug-28 08:33N 38°17' W 009°04'3 3.2
2014-Aug-28 07:33N 38°17' W 009°00'1 1.2
2014-Aug-28 06:33N 38°17' W 008°59'1 0.6
2014-Aug-28 05:33N 38°17' W 008°60'1 0.6
2014-Aug-28 04:33N 38°17' W 009°00'1 0.9
2014-Aug-28 03:33N 38°17' W 009°02'1 1.0
2014-Aug-28 02:33N 38°17' W 009°03'1 1.2
2014-Aug-28 01:33N 38°17' W 009°04'1 1.1
2014-Aug-28 00:29N 38°17' W 009°06'1 0.6
2014-Aug-27 23:31N 38°17' W 009°06'4 4.3
2014-Aug-27 22:33N 38°17' W 009°01'3 2.7
2014-Aug-27 21:33N 38°16' W 008°58'1 1.2
2014-Aug-27 20:33N 38°16' W 008°59'1 1.2
2014-Aug-27 19:33N 38°16' W 009°01'1 1.1
2014-Aug-27 18:33N 38°17' W 009°02'1 1.3
2014-Aug-27 17:32N 38°17' W 009°04'3 2.6
2014-Aug-27 16:33N 38°17' W 009°01'2 1.8
2014-Aug-27 15:33N 38°16' W 008°59'2 1.7
2014-Aug-27 14:33N 38°17' W 009°01'2 1.6
2014-Aug-27 13:33N 38°17' W 009°03'1 1.5
2014-Aug-27 12:33N 38°17' W 009°04'4 3.9
2014-Aug-27 11:33N 38°20' W 009°00'3 3.2
2014-Aug-27 10:33N 38°17' W 009°02'1 0.9
2014-Aug-27 09:33N 38°17' W 009°03'2 1.6
2014-Aug-27 08:20N 38°17' W 009°06'6 7.6
2014-Aug-27 07:33N 38°21' W 008°59'1 0.7
2014-Aug-27 06:33N 38°20' W 008°59'1 0.8
2014-Aug-27 05:33N 38°19' W 008°60'1 0.7
2014-Aug-27 04:33N 38°19' W 008°60'1 0.8
2014-Aug-27 03:33N 38°18' W 009°00'1 0.8
2014-Aug-27 02:33N 38°18' W 009°01'1 0.9
2014-Aug-27 01:33N 38°17' W 009°02'1 0.8
2014-Aug-27 00:33N 38°17' W 009°03'1 0.9
2014-Aug-26 23:33N 38°17' W 009°04'  
2014-Aug-24 07:14N 35°48' W 023°45'913.1
2014-Aug-24 06:32N 35°46' W 023°56'1313.0
2014-Aug-24 05:31N 35°43' W 024°12'1212.7
2014-Aug-24 04:33N 35°40' W 024°27'1513.1
2014-Aug-24 03:27N 35°37' W 024°44'1213.2
2014-Aug-24 02:34N 35°35' W 024°58'1313.1
2014-Aug-24 01:33N 35°32' W 025°14'1413.4
2014-Aug-24 00:29N 35°29' W 025°31'2613.2
2014-Aug-23 22:32N 35°23' W 026°02'1313.0
2014-Aug-23 21:31N 35°20' W 026°18'1313.1
2014-Aug-23 20:30N 35°18' W 026°34'1613.0
2014-Aug-23 19:16N 35°14' W 026°53'  
Track history (hours):
 
Tides and Currents Weather Stations Pressure Air Temp Water Temp Dewpoint Dewpoint Depression Visibility Wind Speed Wind Dir Waves Ship Positions

Chantal

Last reported at 2014-Aug-29 05:31 UTC. Time now 2014-Sep-03 04:51 UTC.
Position N 38°28' W 008°47'.

Length 228 m; draft 4.9 m.

Type: Tanker. MMSI: 636014805.

Date/timePositionNaut miles runAvg speedWind from/ knotsBaromVisibWave heightAir tempDewpointWater temp
2014-Aug-29 05:31N 38°28' W 008°47'1 1.0
2014-Aug-29 04:33N 38°28' W 008°48'0 0.2
2014-Aug-29 03:28N 38°28' W 008°48'0 0.0
2014-Aug-29 02:28N 38°28' W 008°48'0 0.0
2014-Aug-29 00:04N 38°28' W 008°48'0 0.0
2014-Aug-28 23:13N 38°28' W 008°48'0 0.0
2014-Aug-28 22:28N 38°28' W 008°48'0 0.0
2014-Aug-28 21:22N 38°28' W 008°48'0 0.0
2014-Aug-28 17:19N 38°28' W 008°48'0 0.0
2014-Aug-28 16:33N 38°28' W 008°48'3 2.4
2014-Aug-28 15:30N 38°29' W 008°52'6 6.3
2014-Aug-28 14:33N 38°27' W 008°59'5 4.7
2014-Aug-28 13:33N 38°23' W 009°03'2 1.6
2014-Aug-28 12:33N 38°22' W 009°04'1 1.2
2014-Aug-28 11:29N 38°21' W 009°05'6 6.6
2014-Aug-28 10:33N 38°15' W 009°02'3 1.3
2014-Aug-28 08:33N 38°17' W 009°04'3 3.2
2014-Aug-28 07:33N 38°17' W 009°00'1 1.2
2014-Aug-28 06:33N 38°17' W 008°59'1 0.6
2014-Aug-28 05:33N 38°17' W 008°60'1 0.6
2014-Aug-28 04:33N 38°17' W 009°00'1 0.9
2014-Aug-28 03:33N 38°17' W 009°02'1 1.0
2014-Aug-28 02:33N 38°17' W 009°03'1 1.2
2014-Aug-28 01:33N 38°17' W 009°04'1 1.1
2014-Aug-28 00:29N 38°17' W 009°06'1 0.6
2014-Aug-27 23:31N 38°17' W 009°06'4 4.3
2014-Aug-27 22:33N 38°17' W 009°01'3 2.7
2014-Aug-27 21:33N 38°16' W 008°58'1 1.2
2014-Aug-27 20:33N 38°16' W 008°59'1 1.2
2014-Aug-27 19:33N 38°16' W 009°01'1 1.1
2014-Aug-27 18:33N 38°17' W 009°02'1 1.3
2014-Aug-27 17:32N 38°17' W 009°04'3 2.6
2014-Aug-27 16:33N 38°17' W 009°01'2 1.8
2014-Aug-27 15:33N 38°16' W 008°59'2 1.7
2014-Aug-27 14:33N 38°17' W 009°01'2 1.6
2014-Aug-27 13:33N 38°17' W 009°03'1 1.5
2014-Aug-27 12:33N 38°17' W 009°04'4 3.9
2014-Aug-27 11:33N 38°20' W 009°00'3 3.2
2014-Aug-27 10:33N 38°17' W 009°02'1 0.9
2014-Aug-27 09:33N 38°17' W 009°03'2 1.6
2014-Aug-27 08:20N 38°17' W 009°06'6 7.6
2014-Aug-27 07:33N 38°21' W 008°59'1 0.7
2014-Aug-27 06:33N 38°20' W 008°59'1 0.8
2014-Aug-27 05:33N 38°19' W 008°60'1 0.7
2014-Aug-27 04:33N 38°19' W 008°60'1 0.8
2014-Aug-27 03:33N 38°18' W 009°00'1 0.8
2014-Aug-27 02:33N 38°18' W 009°01'1 0.9
2014-Aug-27 01:33N 38°17' W 009°02'1 0.8
2014-Aug-27 00:33N 38°17' W 009°03'1 0.9
2014-Aug-26 23:33N 38°17' W 009°04'  
2014-Aug-24 07:14N 35°48' W 023°45'913.1
2014-Aug-24 06:32N 35°46' W 023°56'1313.0
2014-Aug-24 05:31N 35°43' W 024°12'1212.7
2014-Aug-24 04:33N 35°40' W 024°27'1513.1
2014-Aug-24 03:27N 35°37' W 024°44'1213.2
2014-Aug-24 02:34N 35°35' W 024°58'1313.1
2014-Aug-24 01:33N 35°32' W 025°14'1413.4
2014-Aug-24 00:29N 35°29' W 025°31'2613.2
2014-Aug-23 22:32N 35°23' W 026°02'1313.0
2014-Aug-23 21:31N 35°20' W 026°18'1313.1
2014-Aug-23 20:30N 35°18' W 026°34'1613.0
2014-Aug-23 19:16N 35°14' W 026°53'  

Dump ship's entire track history